sensor_id;sensor_type;location;lat;lon;timestamp;P1;durP1;ratioP1;P2;durP2;ratioP2
63965;SDS011;50151;52.030;5.350;2024-01-30T00:00:02;12.73;;;8.52;;
63965;SDS011;50151;52.030;5.350;2024-01-30T00:02:30;15.10;;;8.90;;
63965;SDS011;50151;52.030;5.350;2024-01-30T00:04:58;13.88;;;8.75;;
63965;SDS011;50151;52.030;5.350;2024-01-30T00:07:24;14.60;;;9.80;;
63965;SDS011;50151;52.030;5.350;2024-01-30T00:09:51;12.70;;;8.80;;
63965;SDS011;50151;52.030;5.350;2024-01-30T00:12:18;11.63;;;8.13;;
63965;SDS011;50151;52.030;5.350;2024-01-30T00:14:45;13.27;;;8.95;;
63965;SDS011;50151;52.030;5.350;2024-01-30T00:17:12;13.02;;;8.75;;
63965;SDS011;50151;52.030;5.350;2024-01-30T00:19:38;13.68;;;8.45;;
63965;SDS011;50151;52.030;5.350;2024-01-30T00:22:05;12.95;;;8.38;;
63965;SDS011;50151;52.030;5.350;2024-01-30T00:24:33;14.63;;;8.90;;
63965;SDS011;50151;52.030;5.350;2024-01-30T00:26:59;15.18;;;9.02;;
63965;SDS011;50151;52.030;5.350;2024-01-30T00:29:26;15.48;;;8.70;;
63965;SDS011;50151;52.030;5.350;2024-01-30T00:31:56;15.05;;;8.65;;
63965;SDS011;50151;52.030;5.350;2024-01-30T00:34:23;16.00;;;9.05;;
63965;SDS011;50151;52.030;5.350;2024-01-30T00:36:50;13.52;;;8.32;;
63965;SDS011;50151;52.030;5.350;2024-01-30T00:39:17;13.98;;;8.48;;
63965;SDS011;50151;52.030;5.350;2024-01-30T00:41:45;13.18;;;8.57;;
63965;SDS011;50151;52.030;5.350;2024-01-30T00:44:12;14.52;;;7.85;;
63965;SDS011;50151;52.030;5.350;2024-01-30T00:46:39;11.40;;;7.60;;
63965;SDS011;50151;52.030;5.350;2024-01-30T00:49:06;10.65;;;8.45;;
63965;SDS011;50151;52.030;5.350;2024-01-30T00:51:33;14.13;;;8.93;;
63965;SDS011;50151;52.030;5.350;2024-01-30T00:54:00;13.88;;;8.57;;
63965;SDS011;50151;52.030;5.350;2024-01-30T00:56:27;13.32;;;8.57;;
63965;SDS011;50151;52.030;5.350;2024-01-30T00:58:53;15.38;;;8.18;;
63965;SDS011;50151;52.030;5.350;2024-01-30T01:01:20;11.77;;;8.40;;
63965;SDS011;50151;52.030;5.350;2024-01-30T01:03:47;11.60;;;8.40;;
63965;SDS011;50151;52.030;5.350;2024-01-30T01:06:15;12.98;;;8.05;;
63965;SDS011;50151;52.030;5.350;2024-01-30T01:08:42;15.00;;;8.63;;
63965;SDS011;50151;52.030;5.350;2024-01-30T01:11:08;14.40;;;8.45;;
63965;SDS011;50151;52.030;5.350;2024-01-30T01:13:36;14.15;;;8.25;;
63965;SDS011;50151;52.030;5.350;2024-01-30T01:16:02;13.32;;;8.18;;
63965;SDS011;50151;52.030;5.350;2024-01-30T01:18:30;11.88;;;8.10;;
63965;SDS011;50151;52.030;5.350;2024-01-30T01:20:57;13.68;;;8.75;;
63965;SDS011;50151;52.030;5.350;2024-01-30T01:23:24;12.60;;;7.88;;
63965;SDS011;50151;52.030;5.350;2024-01-30T01:25:50;12.30;;;7.93;;
63965;SDS011;50151;52.030;5.350;2024-01-30T01:28:17;13.13;;;7.53;;
63965;SDS011;50151;52.030;5.350;2024-01-30T01:30:45;12.23;;;8.63;;
63965;SDS011;50151;52.030;5.350;2024-01-30T01:33:12;12.60;;;8.30;;
63965;SDS011;50151;52.030;5.350;2024-01-30T01:35:41;12.77;;;8.50;;
63965;SDS011;50151;52.030;5.350;2024-01-30T01:38:07;11.57;;;8.05;;
63965;SDS011;50151;52.030;5.350;2024-01-30T01:40:34;11.73;;;7.72;;
63965;SDS011;50151;52.030;5.350;2024-01-30T01:43:03;11.30;;;7.78;;
63965;SDS011;50151;52.030;5.350;2024-01-30T01:45:31;14.50;;;8.20;;
63965;SDS011;50151;52.030;5.350;2024-01-30T01:47:58;12.25;;;8.43;;
63965;SDS011;50151;52.030;5.350;2024-01-30T01:50:25;13.10;;;7.93;;
63965;SDS011;50151;52.030;5.350;2024-01-30T01:52:53;11.50;;;8.60;;
63965;SDS011;50151;52.030;5.350;2024-01-30T01:55:21;12.27;;;7.90;;
63965;SDS011;50151;52.030;5.350;2024-01-30T01:57:50;13.88;;;8.25;;
63965;SDS011;50151;52.030;5.350;2024-01-30T02:00:19;12.45;;;7.88;;
63965;SDS011;50151;52.030;5.350;2024-01-30T02:02:46;11.05;;;7.50;;
63965;SDS011;50151;52.030;5.350;2024-01-30T02:05:14;12.55;;;7.85;;
63965;SDS011;50151;52.030;5.350;2024-01-30T02:07:42;10.55;;;7.80;;
63965;SDS011;50151;52.030;5.350;2024-01-30T02:10:10;14.18;;;7.63;;
63965;SDS011;50151;52.030;5.350;2024-01-30T02:12:36;11.80;;;8.18;;
63965;SDS011;50151;52.030;5.350;2024-01-30T02:15:04;11.82;;;8.32;;
63965;SDS011;50151;52.030;5.350;2024-01-30T02:17:31;11.65;;;7.45;;
63965;SDS011;50151;52.030;5.350;2024-01-30T02:19:58;13.57;;;8.02;;
63965;SDS011;50151;52.030;5.350;2024-01-30T02:22:26;12.95;;;7.60;;
63965;SDS011;50151;52.030;5.350;2024-01-30T02:24:53;12.38;;;7.32;;
63965;SDS011;50151;52.030;5.350;2024-01-30T02:27:20;13.10;;;7.63;;
63965;SDS011;50151;52.030;5.350;2024-01-30T02:29:46;13.27;;;8.10;;
63965;SDS011;50151;52.030;5.350;2024-01-30T02:32:13;15.05;;;8.10;;
63965;SDS011;50151;52.030;5.350;2024-01-30T02:34:40;13.00;;;7.18;;
63965;SDS011;50151;52.030;5.350;2024-01-30T02:37:06;14.75;;;7.78;;
63965;SDS011;50151;52.030;5.350;2024-01-30T02:39:33;15.82;;;7.53;;
63965;SDS011;50151;52.030;5.350;2024-01-30T02:42:00;12.23;;;8.10;;
63965;SDS011;50151;52.030;5.350;2024-01-30T02:44:27;12.43;;;8.23;;
63965;SDS011;50151;52.030;5.350;2024-01-30T02:46:53;10.63;;;7.90;;
63965;SDS011;50151;52.030;5.350;2024-01-30T02:49:21;14.18;;;8.27;;
63965;SDS011;50151;52.030;5.350;2024-01-30T02:51:48;13.85;;;7.82;;
63965;SDS011;50151;52.030;5.350;2024-01-30T02:54:15;14.38;;;7.93;;
63965;SDS011;50151;52.030;5.350;2024-01-30T02:56:42;13.05;;;7.88;;
63965;SDS011;50151;52.030;5.350;2024-01-30T02:59:09;13.30;;;8.20;;
63965;SDS011;50151;52.030;5.350;2024-01-30T03:01:44;13.95;;;8.30;;
63965;SDS011;50151;52.030;5.350;2024-01-30T03:04:12;12.80;;;7.72;;
63965;SDS011;50151;52.030;5.350;2024-01-30T03:06:44;13.95;;;8.00;;
63965;SDS011;50151;52.030;5.350;2024-01-30T03:09:12;13.40;;;7.82;;
63965;SDS011;50151;52.030;5.350;2024-01-30T03:11:39;14.82;;;7.75;;
63965;SDS011;50151;52.030;5.350;2024-01-30T03:14:06;12.52;;;7.47;;
63965;SDS011;50151;52.030;5.350;2024-01-30T03:16:34;15.10;;;8.18;;
63965;SDS011;50151;52.030;5.350;2024-01-30T03:19:00;11.98;;;8.27;;
63965;SDS011;50151;52.030;5.350;2024-01-30T03:21:29;14.18;;;8.32;;
63965;SDS011;50151;52.030;5.350;2024-01-30T03:23:55;11.45;;;8.13;;
63965;SDS011;50151;52.030;5.350;2024-01-30T03:26:22;13.88;;;8.20;;
63965;SDS011;50151;52.030;5.350;2024-01-30T03:28:49;14.60;;;8.32;;
63965;SDS011;50151;52.030;5.350;2024-01-30T03:31:16;12.57;;;8.18;;
63965;SDS011;50151;52.030;5.350;2024-01-30T03:33:43;14.27;;;7.63;;
63965;SDS011;50151;52.030;5.350;2024-01-30T03:36:10;22.27;;;7.90;;
63965;SDS011;50151;52.030;5.350;2024-01-30T03:38:37;10.63;;;7.65;;
63965;SDS011;50151;52.030;5.350;2024-01-30T03:41:07;14.13;;;7.80;;
63965;SDS011;50151;52.030;5.350;2024-01-30T03:43:37;12.52;;;7.80;;
63965;SDS011;50151;52.030;5.350;2024-01-30T03:46:03;16.85;;;7.85;;
63965;SDS011;50151;52.030;5.350;2024-01-30T03:48:30;9.80;;;7.07;;
63965;SDS011;50151;52.030;5.350;2024-01-30T03:50:57;14.02;;;7.63;;
63965;SDS011;50151;52.030;5.350;2024-01-30T03:53:24;11.48;;;7.47;;
63965;SDS011;50151;52.030;5.350;2024-01-30T03:55:51;12.45;;;7.60;;
63965;SDS011;50151;52.030;5.350;2024-01-30T03:58:18;11.68;;;7.47;;
63965;SDS011;50151;52.030;5.350;2024-01-30T04:00:45;12.45;;;7.70;;
63965;SDS011;50151;52.030;5.350;2024-01-30T04:03:12;10.32;;;7.00;;
63965;SDS011;50151;52.030;5.350;2024-01-30T04:05:38;12.82;;;7.30;;
63965;SDS011;50151;52.030;5.350;2024-01-30T04:08:05;13.23;;;7.40;;
63965;SDS011;50151;52.030;5.350;2024-01-30T04:10:32;11.55;;;6.03;;
63965;SDS011;50151;52.030;5.350;2024-01-30T04:12:59;16.02;;;7.30;;
63965;SDS011;50151;52.030;5.350;2024-01-30T04:15:27;12.35;;;7.35;;
63965;SDS011;50151;52.030;5.350;2024-01-30T04:17:57;10.55;;;7.32;;
63965;SDS011;50151;52.030;5.350;2024-01-30T04:20:25;13.32;;;7.18;;
63965;SDS011;50151;52.030;5.350;2024-01-30T04:22:52;11.60;;;7.20;;
63965;SDS011;50151;52.030;5.350;2024-01-30T04:25:19;11.55;;;6.70;;
63965;SDS011;50151;52.030;5.350;2024-01-30T04:27:46;9.82;;;6.43;;
63965;SDS011;50151;52.030;5.350;2024-01-30T04:30:12;10.95;;;6.93;;
63965;SDS011;50151;52.030;5.350;2024-01-30T04:32:39;10.30;;;6.82;;
63965;SDS011;50151;52.030;5.350;2024-01-30T04:35:06;8.43;;;6.88;;
63965;SDS011;50151;52.030;5.350;2024-01-30T04:37:37;12.25;;;7.00;;
63965;SDS011;50151;52.030;5.350;2024-01-30T04:40:05;12.75;;;6.80;;
63965;SDS011;50151;52.030;5.350;2024-01-30T04:42:32;10.20;;;6.55;;
63965;SDS011;50151;52.030;5.350;2024-01-30T04:44:59;14.88;;;6.85;;
63965;SDS011;50151;52.030;5.350;2024-01-30T04:47:25;9.35;;;6.32;;
63965;SDS011;50151;52.030;5.350;2024-01-30T04:49:52;12.90;;;6.97;;
63965;SDS011;50151;52.030;5.350;2024-01-30T04:52:19;12.00;;;7.00;;
63965;SDS011;50151;52.030;5.350;2024-01-30T04:54:47;12.07;;;7.18;;
63965;SDS011;50151;52.030;5.350;2024-01-30T04:57:13;10.10;;;6.65;;
63965;SDS011;50151;52.030;5.350;2024-01-30T04:59:40;12.75;;;6.95;;
63965;SDS011;50151;52.030;5.350;2024-01-30T05:02:07;11.38;;;6.72;;
63965;SDS011;50151;52.030;5.350;2024-01-30T05:04:34;12.07;;;7.20;;
63965;SDS011;50151;52.030;5.350;2024-01-30T05:07:01;12.63;;;6.50;;
63965;SDS011;50151;52.030;5.350;2024-01-30T05:09:28;11.77;;;6.70;;
63965;SDS011;50151;52.030;5.350;2024-01-30T05:11:55;11.20;;;6.90;;
63965;SDS011;50151;52.030;5.350;2024-01-30T05:14:22;10.25;;;6.88;;
63965;SDS011;50151;52.030;5.350;2024-01-30T05:16:49;14.00;;;6.93;;
63965;SDS011;50151;52.030;5.350;2024-01-30T05:19:15;11.63;;;7.30;;
63965;SDS011;50151;52.030;5.350;2024-01-30T05:21:43;10.18;;;6.60;;
63965;SDS011;50151;52.030;5.350;2024-01-30T05:24:10;10.35;;;6.53;;
63965;SDS011;50151;52.030;5.350;2024-01-30T05:26:37;13.30;;;7.53;;
63965;SDS011;50151;52.030;5.350;2024-01-30T05:29:04;11.00;;;6.22;;
63965;SDS011;50151;52.030;5.350;2024-01-30T05:31:31;9.55;;;6.70;;
63965;SDS011;50151;52.030;5.350;2024-01-30T05:33:58;10.45;;;6.72;;
63965;SDS011;50151;52.030;5.350;2024-01-30T05:36:25;11.85;;;6.70;;
63965;SDS011;50151;52.030;5.350;2024-01-30T05:38:52;10.50;;;7.20;;
63965;SDS011;50151;52.030;5.350;2024-01-30T05:41:19;9.85;;;6.25;;
63965;SDS011;50151;52.030;5.350;2024-01-30T05:43:47;8.80;;;6.32;;
63965;SDS011;50151;52.030;5.350;2024-01-30T05:46:14;10.45;;;6.85;;
63965;SDS011;50151;52.030;5.350;2024-01-30T05:48:41;11.15;;;7.05;;
63965;SDS011;50151;52.030;5.350;2024-01-30T05:51:07;9.18;;;6.50;;
63965;SDS011;50151;52.030;5.350;2024-01-30T05:53:35;11.57;;;6.95;;
63965;SDS011;50151;52.030;5.350;2024-01-30T05:56:02;9.07;;;6.47;;
63965;SDS011;50151;52.030;5.350;2024-01-30T05:58:29;11.20;;;6.57;;
63965;SDS011;50151;52.030;5.350;2024-01-30T06:00:57;9.82;;;6.65;;
63965;SDS011;50151;52.030;5.350;2024-01-30T06:03:24;10.75;;;6.70;;
63965;SDS011;50151;52.030;5.350;2024-01-30T06:05:51;11.40;;;6.70;;
63965;SDS011;50151;52.030;5.350;2024-01-30T06:08:18;12.10;;;6.80;;
63965;SDS011;50151;52.030;5.350;2024-01-30T06:10:45;9.88;;;6.90;;
63965;SDS011;50151;52.030;5.350;2024-01-30T06:13:12;10.23;;;6.88;;
63965;SDS011;50151;52.030;5.350;2024-01-30T06:15:39;10.98;;;6.22;;
63965;SDS011;50151;52.030;5.350;2024-01-30T06:18:05;12.30;;;6.70;;
63965;SDS011;50151;52.030;5.350;2024-01-30T06:20:32;9.73;;;7.03;;
63965;SDS011;50151;52.030;5.350;2024-01-30T06:22:59;10.05;;;6.60;;
63965;SDS011;50151;52.030;5.350;2024-01-30T06:25:26;13.75;;;6.78;;
63965;SDS011;50151;52.030;5.350;2024-01-30T06:27:53;11.48;;;6.90;;
63965;SDS011;50151;52.030;5.350;2024-01-30T06:30:20;11.48;;;6.82;;
63965;SDS011;50151;52.030;5.350;2024-01-30T06:32:47;11.45;;;6.75;;
63965;SDS011;50151;52.030;5.350;2024-01-30T06:35:14;13.82;;;6.97;;
63965;SDS011;50151;52.030;5.350;2024-01-30T06:37:41;12.63;;;6.93;;
63965;SDS011;50151;52.030;5.350;2024-01-30T06:40:08;11.05;;;6.72;;
63965;SDS011;50151;52.030;5.350;2024-01-30T06:42:35;12.05;;;6.70;;
63965;SDS011;50151;52.030;5.350;2024-01-30T06:45:02;13.27;;;7.13;;
63965;SDS011;50151;52.030;5.350;2024-01-30T06:47:29;13.63;;;7.35;;
63965;SDS011;50151;52.030;5.350;2024-01-30T06:49:57;13.88;;;7.10;;
63965;SDS011;50151;52.030;5.350;2024-01-30T06:52:24;10.75;;;6.78;;
63965;SDS011;50151;52.030;5.350;2024-01-30T06:54:51;10.45;;;6.60;;
63965;SDS011;50151;52.030;5.350;2024-01-30T06:57:17;11.02;;;6.75;;
63965;SDS011;50151;52.030;5.350;2024-01-30T06:59:44;11.48;;;6.53;;
63965;SDS011;50151;52.030;5.350;2024-01-30T07:02:11;9.07;;;6.10;;
63965;SDS011;50151;52.030;5.350;2024-01-30T07:04:38;12.63;;;7.18;;
63965;SDS011;50151;52.030;5.350;2024-01-30T07:07:11;8.90;;;6.78;;
63965;SDS011;50151;52.030;5.350;2024-01-30T07:09:39;10.63;;;6.65;;
63965;SDS011;50151;52.030;5.350;2024-01-30T07:12:07;9.52;;;5.97;;
63965;SDS011;50151;52.030;5.350;2024-01-30T07:14:35;15.07;;;6.30;;
63965;SDS011;50151;52.030;5.350;2024-01-30T07:17:02;9.77;;;6.70;;
63965;SDS011;50151;52.030;5.350;2024-01-30T07:19:29;9.52;;;6.45;;
63965;SDS011;50151;52.030;5.350;2024-01-30T07:21:56;11.07;;;7.20;;
63965;SDS011;50151;52.030;5.350;2024-01-30T07:24:22;8.77;;;6.35;;
63965;SDS011;50151;52.030;5.350;2024-01-30T07:26:49;13.32;;;6.50;;
63965;SDS011;50151;52.030;5.350;2024-01-30T07:29:16;12.07;;;6.60;;
63965;SDS011;50151;52.030;5.350;2024-01-30T07:31:42;12.23;;;6.70;;
63965;SDS011;50151;52.030;5.350;2024-01-30T07:34:09;9.48;;;6.57;;
63965;SDS011;50151;52.030;5.350;2024-01-30T07:36:36;9.88;;;6.47;;
63965;SDS011;50151;52.030;5.350;2024-01-30T07:39:04;12.25;;;6.55;;
63965;SDS011;50151;52.030;5.350;2024-01-30T07:41:31;9.88;;;6.57;;
63965;SDS011;50151;52.030;5.350;2024-01-30T07:43:58;8.90;;;5.97;;
63965;SDS011;50151;52.030;5.350;2024-01-30T07:46:26;11.05;;;7.28;;
63965;SDS011;50151;52.030;5.350;2024-01-30T07:48:53;11.13;;;6.53;;
63965;SDS011;50151;52.030;5.350;2024-01-30T07:51:20;11.18;;;6.35;;
63965;SDS011;50151;52.030;5.350;2024-01-30T07:53:51;11.30;;;6.82;;
63965;SDS011;50151;52.030;5.350;2024-01-30T07:56:18;10.80;;;6.95;;
63965;SDS011;50151;52.030;5.350;2024-01-30T07:58:44;9.30;;;6.28;;
63965;SDS011;50151;52.030;5.350;2024-01-30T08:01:11;11.82;;;6.32;;
63965;SDS011;50151;52.030;5.350;2024-01-30T08:03:38;10.50;;;6.25;;
63965;SDS011;50151;52.030;5.350;2024-01-30T08:06:07;10.68;;;6.85;;
63965;SDS011;50151;52.030;5.350;2024-01-30T08:08:34;11.00;;;7.20;;
63965;SDS011;50151;52.030;5.350;2024-01-30T08:11:01;10.20;;;6.30;;
63965;SDS011;50151;52.030;5.350;2024-01-30T08:13:28;14.25;;;7.20;;
63965;SDS011;50151;52.030;5.350;2024-01-30T08:15:54;11.82;;;6.95;;
63965;SDS011;50151;52.030;5.350;2024-01-30T08:18:21;10.52;;;6.47;;
63965;SDS011;50151;52.030;5.350;2024-01-30T08:20:48;13.88;;;6.40;;
63965;SDS011;50151;52.030;5.350;2024-01-30T08:23:15;12.25;;;6.18;;
63965;SDS011;50151;52.030;5.350;2024-01-30T08:25:42;12.73;;;6.68;;
63965;SDS011;50151;52.030;5.350;2024-01-30T08:28:08;10.70;;;6.50;;
63965;SDS011;50151;52.030;5.350;2024-01-30T08:30:35;16.80;;;6.20;;
63965;SDS011;50151;52.030;5.350;2024-01-30T08:33:02;13.43;;;6.40;;
63965;SDS011;50151;52.030;5.350;2024-01-30T08:35:29;19.08;;;6.68;;
63965;SDS011;50151;52.030;5.350;2024-01-30T08:37:59;17.70;;;6.70;;
63965;SDS011;50151;52.030;5.350;2024-01-30T08:40:26;16.40;;;7.05;;
63965;SDS011;50151;52.030;5.350;2024-01-30T08:42:53;15.18;;;6.43;;
63965;SDS011;50151;52.030;5.350;2024-01-30T08:45:20;15.27;;;6.60;;
63965;SDS011;50151;52.030;5.350;2024-01-30T08:47:47;14.93;;;5.50;;
63965;SDS011;50151;52.030;5.350;2024-01-30T08:50:14;11.77;;;6.05;;
63965;SDS011;50151;52.030;5.350;2024-01-30T08:52:41;15.52;;;6.68;;
63965;SDS011;50151;52.030;5.350;2024-01-30T08:55:08;12.63;;;6.65;;
63965;SDS011;50151;52.030;5.350;2024-01-30T08:57:35;15.48;;;6.55;;
63965;SDS011;50151;52.030;5.350;2024-01-30T09:00:02;8.85;;;6.32;;
63965;SDS011;50151;52.030;5.350;2024-01-30T09:02:33;15.90;;;6.22;;
63965;SDS011;50151;52.030;5.350;2024-01-30T09:05:00;11.70;;;6.75;;
63965;SDS011;50151;52.030;5.350;2024-01-30T09:07:27;17.40;;;5.60;;
63965;SDS011;50151;52.030;5.350;2024-01-30T09:09:54;13.60;;;5.95;;
63965;SDS011;50151;52.030;5.350;2024-01-30T09:12:21;11.93;;;6.00;;
63965;SDS011;50151;52.030;5.350;2024-01-30T09:14:47;12.15;;;6.30;;
63965;SDS011;50151;52.030;5.350;2024-01-30T09:17:14;15.77;;;6.97;;
63965;SDS011;50151;52.030;5.350;2024-01-30T09:19:41;17.92;;;6.43;;
63965;SDS011;50151;52.030;5.350;2024-01-30T09:22:08;12.93;;;5.28;;
63965;SDS011;50151;52.030;5.350;2024-01-30T09:24:35;17.35;;;5.72;;
63965;SDS011;50151;52.030;5.350;2024-01-30T09:27:02;17.20;;;5.10;;
63965;SDS011;50151;52.030;5.350;2024-01-30T09:29:29;25.30;;;6.78;;
63965;SDS011;50151;52.030;5.350;2024-01-30T09:31:55;11.38;;;5.00;;
63965;SDS011;50151;52.030;5.350;2024-01-30T09:34:22;7.30;;;4.40;;
63965;SDS011;50151;52.030;5.350;2024-01-30T09:36:49;11.70;;;5.35;;
63965;SDS011;50151;52.030;5.350;2024-01-30T09:39:16;10.90;;;6.70;;
63965;SDS011;50151;52.030;5.350;2024-01-30T09:41:45;13.30;;;5.43;;
63965;SDS011;50151;52.030;5.350;2024-01-30T09:44:15;12.35;;;5.80;;
63965;SDS011;50151;52.030;5.350;2024-01-30T09:46:43;10.63;;;4.82;;
63965;SDS011;50151;52.030;5.350;2024-01-30T09:49:13;12.65;;;5.88;;
63965;SDS011;50151;52.030;5.350;2024-01-30T09:51:42;15.07;;;6.22;;
63965;SDS011;50151;52.030;5.350;2024-01-30T09:54:11;14.93;;;6.22;;
63965;SDS011;50151;52.030;5.350;2024-01-30T09:56:40;8.13;;;4.90;;
63965;SDS011;50151;52.030;5.350;2024-01-30T09:59:07;14.75;;;6.50;;
63965;SDS011;50151;52.030;5.350;2024-01-30T10:01:34;11.27;;;5.85;;
63965;SDS011;50151;52.030;5.350;2024-01-30T10:04:03;10.57;;;5.43;;
63965;SDS011;50151;52.030;5.350;2024-01-30T10:06:31;9.95;;;5.57;;
63965;SDS011;50151;52.030;5.350;2024-01-30T10:08:57;19.08;;;5.55;;
63965;SDS011;50151;52.030;5.350;2024-01-30T10:11:24;11.93;;;4.90;;
63965;SDS011;50151;52.030;5.350;2024-01-30T10:13:51;14.07;;;6.00;;
63965;SDS011;50151;52.030;5.350;2024-01-30T10:16:18;13.23;;;5.90;;
63965;SDS011;50151;52.030;5.350;2024-01-30T10:18:45;12.63;;;5.38;;
63965;SDS011;50151;52.030;5.350;2024-01-30T10:21:12;8.20;;;4.15;;
63965;SDS011;50151;52.030;5.350;2024-01-30T10:23:39;6.22;;;3.28;;
63965;SDS011;50151;52.030;5.350;2024-01-30T10:26:07;8.60;;;5.07;;
63965;SDS011;50151;52.030;5.350;2024-01-30T10:28:34;10.10;;;5.90;;
63965;SDS011;50151;52.030;5.350;2024-01-30T10:31:01;16.80;;;6.03;;
63965;SDS011;50151;52.030;5.350;2024-01-30T10:33:32;9.52;;;5.25;;
63965;SDS011;50151;52.030;5.350;2024-01-30T10:36:03;12.32;;;5.60;;
63965;SDS011;50151;52.030;5.350;2024-01-30T10:38:31;8.65;;;5.28;;
63965;SDS011;50151;52.030;5.350;2024-01-30T10:41:01;11.55;;;4.68;;
63965;SDS011;50151;52.030;5.350;2024-01-30T10:43:32;8.80;;;5.35;;
63965;SDS011;50151;52.030;5.350;2024-01-30T10:46:11;14.05;;;5.50;;
63965;SDS011;50151;52.030;5.350;2024-01-30T10:48:47;9.43;;;5.20;;
63965;SDS011;50151;52.030;5.350;2024-01-30T10:51:28;10.90;;;4.05;;
63965;SDS011;50151;52.030;5.350;2024-01-30T10:53:57;7.47;;;3.65;;
63965;SDS011;50151;52.030;5.350;2024-01-30T10:56:24;10.52;;;3.85;;
63965;SDS011;50151;52.030;5.350;2024-01-30T10:58:52;7.43;;;3.63;;
63965;SDS011;50151;52.030;5.350;2024-01-30T11:01:20;7.68;;;3.88;;
63965;SDS011;50151;52.030;5.350;2024-01-30T11:03:51;10.10;;;4.35;;
63965;SDS011;50151;52.030;5.350;2024-01-30T11:06:22;8.10;;;4.65;;
63965;SDS011;50151;52.030;5.350;2024-01-30T11:09:05;9.75;;;3.45;;
63965;SDS011;50151;52.030;5.350;2024-01-30T11:11:49;10.20;;;4.45;;
63965;SDS011;50151;52.030;5.350;2024-01-30T11:14:22;9.70;;;3.90;;
63965;SDS011;50151;52.030;5.350;2024-01-30T11:16:51;8.30;;;3.15;;
63965;SDS011;50151;52.030;5.350;2024-01-30T11:19:27;6.15;;;2.92;;
63965;SDS011;50151;52.030;5.350;2024-01-30T11:21:57;6.70;;;2.85;;
63965;SDS011;50151;52.030;5.350;2024-01-30T11:24:25;5.85;;;2.63;;
63965;SDS011;50151;52.030;5.350;2024-01-30T11:26:56;6.35;;;2.78;;
63965;SDS011;50151;52.030;5.350;2024-01-30T11:29:27;7.55;;;3.25;;
63965;SDS011;50151;52.030;5.350;2024-01-30T11:31:54;9.20;;;2.78;;
63965;SDS011;50151;52.030;5.350;2024-01-30T11:34:25;6.85;;;2.38;;
63965;SDS011;50151;52.030;5.350;2024-01-30T11:36:57;4.55;;;2.05;;
63965;SDS011;50151;52.030;5.350;2024-01-30T11:39:26;6.13;;;2.47;;
63965;SDS011;50151;52.030;5.350;2024-01-30T11:41:53;7.65;;;2.55;;
63965;SDS011;50151;52.030;5.350;2024-01-30T11:44:20;7.18;;;2.60;;
63965;SDS011;50151;52.030;5.350;2024-01-30T11:46:48;4.70;;;2.38;;
63965;SDS011;50151;52.030;5.350;2024-01-30T11:49:16;8.43;;;1.95;;
63965;SDS011;50151;52.030;5.350;2024-01-30T11:51:45;7.60;;;1.80;;
63965;SDS011;50151;52.030;5.350;2024-01-30T11:54:18;5.18;;;1.58;;
63965;SDS011;50151;52.030;5.350;2024-01-30T11:56:44;6.10;;;1.67;;
63965;SDS011;50151;52.030;5.350;2024-01-30T11:59:11;8.23;;;1.58;;
63965;SDS011;50151;52.030;5.350;2024-01-30T12:01:38;3.17;;;1.40;;
63965;SDS011;50151;52.030;5.350;2024-01-30T12:04:05;2.85;;;0.85;;
63965;SDS011;50151;52.030;5.350;2024-01-30T12:06:36;5.47;;;1.30;;
63965;SDS011;50151;52.030;5.350;2024-01-30T12:09:03;2.92;;;0.82;;
63965;SDS011;50151;52.030;5.350;2024-01-30T12:11:30;3.85;;;1.15;;
63965;SDS011;50151;52.030;5.350;2024-01-30T12:13:57;3.78;;;1.20;;
63965;SDS011;50151;52.030;5.350;2024-01-30T12:16:24;5.45;;;1.65;;
63965;SDS011;50151;52.030;5.350;2024-01-30T12:18:59;6.65;;;1.70;;
63965;SDS011;50151;52.030;5.350;2024-01-30T12:21:28;5.38;;;1.42;;
63965;SDS011;50151;52.030;5.350;2024-01-30T12:23:56;4.55;;;1.73;;
63965;SDS011;50151;52.030;5.350;2024-01-30T12:26:24;4.70;;;1.75;;
63965;SDS011;50151;52.030;5.350;2024-01-30T12:28:55;9.88;;;2.10;;
63965;SDS011;50151;52.030;5.350;2024-01-30T12:31:25;4.25;;;1.75;;
63965;SDS011;50151;52.030;5.350;2024-01-30T12:33:55;6.78;;;1.85;;
63965;SDS011;50151;52.030;5.350;2024-01-30T12:36:24;4.95;;;1.77;;
63965;SDS011;50151;52.030;5.350;2024-01-30T12:38:52;5.35;;;2.38;;
63965;SDS011;50151;52.030;5.350;2024-01-30T12:41:19;6.32;;;1.75;;
63965;SDS011;50151;52.030;5.350;2024-01-30T12:43:46;5.53;;;1.70;;
63965;SDS011;50151;52.030;5.350;2024-01-30T12:46:16;5.10;;;1.33;;
63965;SDS011;50151;52.030;5.350;2024-01-30T12:48:44;6.85;;;1.92;;
63965;SDS011;50151;52.030;5.350;2024-01-30T12:51:11;5.72;;;1.27;;
63965;SDS011;50151;52.030;5.350;2024-01-30T12:53:38;5.88;;;1.40;;
63965;SDS011;50151;52.030;5.350;2024-01-30T12:56:05;5.47;;;1.33;;
63965;SDS011;50151;52.030;5.350;2024-01-30T12:58:32;3.30;;;1.10;;
63965;SDS011;50151;52.030;5.350;2024-01-30T13:00:58;9.05;;;1.30;;
63965;SDS011;50151;52.030;5.350;2024-01-30T13:03:26;8.15;;;1.75;;
63965;SDS011;50151;52.030;5.350;2024-01-30T13:05:54;2.95;;;1.00;;
63965;SDS011;50151;52.030;5.350;2024-01-30T13:08:21;3.15;;;1.10;;
63965;SDS011;50151;52.030;5.350;2024-01-30T13:10:48;5.70;;;1.48;;
63965;SDS011;50151;52.030;5.350;2024-01-30T13:13:15;4.43;;;1.45;;
63965;SDS011;50151;52.030;5.350;2024-01-30T13:15:46;7.75;;;2.05;;
63965;SDS011;50151;52.030;5.350;2024-01-30T13:18:14;6.75;;;2.08;;
63965;SDS011;50151;52.030;5.350;2024-01-30T13:20:41;5.88;;;2.20;;
63965;SDS011;50151;52.030;5.350;2024-01-30T13:23:08;4.10;;;2.03;;
63965;SDS011;50151;52.030;5.350;2024-01-30T13:25:35;4.45;;;1.70;;
63965;SDS011;50151;52.030;5.350;2024-01-30T13:28:02;2.75;;;1.38;;
63965;SDS011;50151;52.030;5.350;2024-01-30T13:30:30;3.58;;;1.02;;
63965;SDS011;50151;52.030;5.350;2024-01-30T13:32:56;3.58;;;1.20;;
63965;SDS011;50151;52.030;5.350;2024-01-30T13:35:24;3.60;;;0.95;;
63965;SDS011;50151;52.030;5.350;2024-01-30T13:37:51;4.60;;;0.93;;
63965;SDS011;50151;52.030;5.350;2024-01-30T13:40:18;3.10;;;0.90;;
63965;SDS011;50151;52.030;5.350;2024-01-30T13:42:45;0.80;;;0.35;;
63965;SDS011;50151;52.030;5.350;2024-01-30T13:45:12;3.38;;;0.85;;
63965;SDS011;50151;52.030;5.350;2024-01-30T13:47:39;2.38;;;0.65;;
63965;SDS011;50151;52.030;5.350;2024-01-30T13:50:06;4.75;;;0.93;;
63965;SDS011;50151;52.030;5.350;2024-01-30T13:52:34;1.10;;;0.43;;
63965;SDS011;50151;52.030;5.350;2024-01-30T13:55:10;2.70;;;0.73;;
63965;SDS011;50151;52.030;5.350;2024-01-30T13:57:37;1.48;;;0.50;;
63965;SDS011;50151;52.030;5.350;2024-01-30T14:00:04;2.28;;;0.70;;
63965;SDS011;50151;52.030;5.350;2024-01-30T14:02:35;2.15;;;0.90;;
63965;SDS011;50151;52.030;5.350;2024-01-30T14:05:02;2.90;;;0.50;;
63965;SDS011;50151;52.030;5.350;2024-01-30T14:07:31;2.78;;;1.00;;
63965;SDS011;50151;52.030;5.350;2024-01-30T14:09:59;3.47;;;1.30;;
63965;SDS011;50151;52.030;5.350;2024-01-30T14:12:26;3.53;;;0.93;;
63965;SDS011;50151;52.030;5.350;2024-01-30T14:14:52;3.10;;;0.93;;
63965;SDS011;50151;52.030;5.350;2024-01-30T14:17:19;2.92;;;1.20;;
63965;SDS011;50151;52.030;5.350;2024-01-30T14:19:46;3.22;;;0.90;;
63965;SDS011;50151;52.030;5.350;2024-01-30T14:22:13;5.93;;;1.50;;
63965;SDS011;50151;52.030;5.350;2024-01-30T14:24:39;6.63;;;1.83;;
63965;SDS011;50151;52.030;5.350;2024-01-30T14:27:06;4.43;;;1.52;;
63965;SDS011;50151;52.030;5.350;2024-01-30T14:29:34;2.90;;;1.15;;
63965;SDS011;50151;52.030;5.350;2024-01-30T14:32:01;12.30;;;1.73;;
63965;SDS011;50151;52.030;5.350;2024-01-30T14:34:30;3.00;;;0.85;;
63965;SDS011;50151;52.030;5.350;2024-01-30T14:36:57;3.80;;;1.33;;
63965;SDS011;50151;52.030;5.350;2024-01-30T14:39:24;5.53;;;1.13;;